Time;durP1;ratioP1;P1;durP2;ratioP2;P2;SDS_P1;SDS_P2;PMS_P1;PMS_P2;Temp;Humidity;BMP_temperature;BMP_pressure;BME280_temperature;BME280_humidity;BME280_pressure;Samples;Min_cycle;Max_cycle;Signal;HPM_P1;HPM_P2
2022/04/01 00:02:04;;;;;;;16.92;8.05;;;;;;;;;;4986845;28;20041;-81
2022/04/01 00:04:29;;;;;;;18.70;8.90;;;;;;;;;;4989356;28;20408;-80
2022/04/01 00:06:55;;;;;;;16.52;7.82;;;;;;;;;;4983138;28;20030;-80
2022/04/01 00:09:20;;;;;;;16.98;8.43;;;;;;;;;;4984960;28;20479;-79
2022/04/01 00:11:46;;;;;;;18.05;8.98;;;;;;;;;;4983521;28;20511;-81
2022/04/01 00:14:11;;;;;;;17.65;9.07;;;;;;;;;;4983066;28;20046;-83
2022/04/01 00:16:36;;;;;;;17.63;8.73;;;;;;;;;;4990698;28;20122;-81
2022/04/01 00:19:03;;;;;;;19.25;8.10;;;;;;;;;;4985848;28;20100;-81
2022/04/01 00:21:28;;;;;;;15.63;8.45;;;;;;;;;;4997021;28;20060;-79
2022/04/01 00:23:54;;;;;;;20.20;8.52;;;;;;;;;;4993734;28;20038;-80
2022/04/01 00:26:21;;;;;;;16.42;7.65;;;;;;;;;;4988549;28;20089;-80
2022/04/01 00:28:47;;;;;;;19.85;8.90;;;;;;;;;;4988955;28;20018;-81
2022/04/01 00:31:13;;;;;;;17.48;8.45;;;;;;;;;;5003129;28;20082;-82
2022/04/01 00:33:39;;;;;;;18.50;8.05;;;;;;;;;;4993558;28;20033;-81
2022/04/01 00:36:05;;;;;;;16.15;7.93;;;;;;;;;;4989784;28;20034;-83
2022/04/01 00:38:30;;;;;;;17.42;8.38;;;;;;;;;;4984209;28;20173;-82
2022/04/01 00:40:58;;;;;;;15.98;8.05;;;;;;;;;;4981113;28;20540;-82
2022/04/01 00:43:34;;;;;;;14.98;7.32;;;;;;;;;;4984302;28;20497;-80
2022/04/01 00:46:00;;;;;;;16.67;7.97;;;;;;;;;;4987582;28;20585;-80
2022/04/01 00:48:27;;;;;;;16.95;8.25;;;;;;;;;;4988223;28;20408;-79
2022/04/01 00:50:53;;;;;;;16.08;7.43;;;;;;;;;;4983550;28;20069;-81
2022/04/01 00:53:20;;;;;;;14.75;7.72;;;;;;;;;;4987912;28;20493;-80
2022/04/01 00:55:47;;;;;;;16.38;7.95;;;;;;;;;;4980311;28;20034;-80
2022/04/01 00:58:12;;;;;;;15.13;7.32;;;;;;;;;;4984606;28;20468;-80
2022/04/01 01:00:38;;;;;;;16.98;7.63;;;;;;;;;;4988859;28;20208;-81
2022/04/01 01:03:08;;;;;;;14.45;6.93;;;;;;;;;;4993778;28;20189;-80
2022/04/01 01:05:34;;;;;;;16.30;6.97;;;;;;;;;;4982804;28;20026;-80
2022/04/01 01:08:05;;;;;;;12.85;7.32;;;;;;;;;;4993915;28;20494;-79
2022/04/01 01:10:34;;;;;;;13.38;6.97;;;;;;;;;;4988771;28;20018;-80
2022/04/01 01:13:02;;;;;;;13.02;7.00;;;;;;;;;;4977111;28;20032;-80
2022/04/01 01:15:27;;;;;;;12.13;6.43;;;;;;;;;;4985853;28;20508;-79
2022/04/01 01:17:53;;;;;;;12.90;6.82;;;;;;;;;;4981725;28;20034;-80
2022/04/01 01:20:18;;;;;;;11.27;5.95;;;;;;;;;;4983928;28;20031;-82
2022/04/01 01:22:49;;;;;;;12.60;6.20;;;;;;;;;;5004064;28;20026;-80
2022/04/01 01:25:15;;;;;;;11.60;5.90;;;;;;;;;;4985377;28;20030;-81
2022/04/01 01:27:43;;;;;;;10.77;5.60;;;;;;;;;;4999559;28;20027;-82
2022/04/01 01:30:10;;;;;;;10.75;6.05;;;;;;;;;;4983488;28;20039;-81
2022/04/01 01:32:37;;;;;;;21.30;11.77;;;;;;;;;;4985077;28;20369;-82
2022/04/01 01:35:05;;;;;;;13.65;8.20;;;;;;;;;;4983158;28;20037;-82
2022/04/01 01:37:31;;;;;;;13.15;7.43;;;;;;;;;;5000755;28;20049;-80
2022/04/01 01:39:58;;;;;;;15.57;8.27;;;;;;;;;;5008643;28;20023;-79
2022/04/01 01:42:24;;;;;;;14.63;7.63;;;;;;;;;;4992687;28;20034;-80
2022/04/01 01:44:49;;;;;;;22.83;11.70;;;;;;;;;;4985763;28;20093;-80
2022/04/01 01:47:15;;;;;;;16.13;8.25;;;;;;;;;;5000389;28;20022;-80
2022/04/01 01:54:43;;;;;;;21.40;10.23;;;;;;;;;;4990358;28;20056;-79
2022/04/01 01:55:17;;;;;;;16.38;7.68;;;;;;;;;;4980751;28;20446;-81
2022/04/01 01:57:44;;;;;;;16.90;8.52;;;;;;;;;;5005652;28;20027;-80
2022/04/01 02:00:13;;;;;;;16.75;8.85;;;;;;;;;;4986732;28;20057;-81
2022/04/01 02:02:39;;;;;;;13.05;7.25;;;;;;;;;;4984979;28;20034;-80
2022/04/01 02:05:06;;;;;;;14.40;6.78;;;;;;;;;;4980438;28;20117;-80
2022/04/01 02:07:32;;;;;;;13.38;7.32;;;;;;;;;;4986154;28;20132;-79
2022/04/01 02:09:57;;;;;;;10.57;6.20;;;;;;;;;;4982188;28;20064;-78
2022/04/01 02:12:23;;;;;;;14.93;7.00;;;;;;;;;;4986909;28;20018;-78
2022/04/01 02:14:48;;;;;;;11.82;6.60;;;;;;;;;;5005259;28;20022;-79
2022/04/01 02:17:16;;;;;;;14.18;6.90;;;;;;;;;;4984017;28;20026;-80
2022/04/01 02:19:42;;;;;;;14.27;7.63;;;;;;;;;;4982600;28;20045;-80
2022/04/01 02:22:07;;;;;;;13.63;6.75;;;;;;;;;;4987101;28;20042;-79
2022/04/01 02:24:33;;;;;;;14.68;7.70;;;;;;;;;;4989641;28;20121;-79
2022/04/01 02:26:59;;;;;;;13.77;8.13;;;;;;;;;;4981843;28;20481;-81
2022/04/01 02:29:25;;;;;;;13.48;7.70;;;;;;;;;;5001393;28;20026;-80
2022/04/01 02:31:52;;;;;;;15.02;8.20;;;;;;;;;;4984729;28;20026;-78
2022/04/01 02:34:19;;;;;;;15.73;8.57;;;;;;;;;;4986371;28;20451;-79
2022/04/01 02:36:45;;;;;;;16.65;9.40;;;;;;;;;;4987249;28;20030;-79
2022/04/01 02:39:11;;;;;;;14.75;7.82;;;;;;;;;;4983438;28;20022;-79
2022/04/01 02:41:36;;;;;;;15.48;8.05;;;;;;;;;;4985583;28;20457;-79
2022/04/01 02:44:08;;;;;;;16.10;8.60;;;;;;;;;;4997726;28;20030;-80
2022/04/01 02:46:40;;;;;;;16.90;8.65;;;;;;;;;;5001757;28;20062;-78
2022/04/01 02:49:07;;;;;;;16.20;8.60;;;;;;;;;;5002563;28;20125;-79
2022/04/01 02:51:36;;;;;;;17.98;8.90;;;;;;;;;;4985289;28;20066;-78
2022/04/01 02:54:03;;;;;;;17.83;8.75;;;;;;;;;;4985457;28;20121;-78
2022/04/01 02:56:30;;;;;;;16.13;8.52;;;;;;;;;;4982773;28;20026;-79
2022/04/01 02:58:55;;;;;;;16.92;8.52;;;;;;;;;;4985078;28;20128;-78
2022/04/01 03:01:21;;;;;;;15.35;8.90;;;;;;;;;;5002418;28;20470;-78
2022/04/01 03:03:46;;;;;;;17.52;8.82;;;;;;;;;;4993399;28;20493;-79
2022/04/01 03:06:15;;;;;;;16.38;9.10;;;;;;;;;;4986381;28;20105;-78
2022/04/01 03:08:41;;;;;;;14.85;8.30;;;;;;;;;;4981927;28;20535;-79
2022/04/01 03:11:07;;;;;;;19.63;10.02;;;;;;;;;;4988291;28;20122;-79
2022/04/01 03:13:33;;;;;;;21.33;11.68;;;;;;;;;;4986229;28;20037;-79
2022/04/01 03:15:58;;;;;;;19.45;10.45;;;;;;;;;;4999154;28;20027;-79
2022/04/01 03:18:23;;;;;;;18.40;10.40;;;;;;;;;;4988936;28;20034;-79
2022/04/01 03:20:49;;;;;;;18.88;10.10;;;;;;;;;;4986946;28;20034;-80
2022/04/01 03:23:15;;;;;;;21.98;10.80;;;;;;;;;;4990961;28;20488;-79
2022/04/01 03:25:41;;;;;;;23.40;10.55;;;;;;;;;;4988355;28;20026;-80
2022/04/01 03:28:07;;;;;;;17.38;9.10;;;;;;;;;;4985511;28;20485;-80
2022/04/01 03:30:34;;;;;;;17.02;8.48;;;;;;;;;;4993353;28;20117;-80
2022/04/01 03:33:00;;;;;;;22.02;10.57;;;;;;;;;;4992554;28;20031;-80
2022/04/01 03:35:28;;;;;;;21.90;10.82;;;;;;;;;;4989425;28;20037;-79
2022/04/01 03:37:53;;;;;;;18.17;8.70;;;;;;;;;;4988865;28;20038;-82
2022/04/01 03:40:21;;;;;;;23.17;10.43;;;;;;;;;;4985437;28;20046;-80
2022/04/01 03:42:48;;;;;;;21.35;10.07;;;;;;;;;;4990512;28;20031;-80
2022/04/01 03:45:17;;;;;;;22.58;9.90;;;;;;;;;;4991904;28;20037;-78
2022/04/01 03:47:59;;;;;;;19.83;9.45;;;;;;;;;;4989251;28;20038;-80
2022/04/01 03:50:36;;;;;;;16.60;8.85;;;;;;;;;;4987332;28;20091;-79
2022/04/01 03:53:08;;;;;;;15.65;8.65;;;;;;;;;;4987304;28;20030;-80
2022/04/01 03:55:38;;;;;;;19.73;9.80;;;;;;;;;;4981905;28;20034;-78
2022/04/01 03:58:10;;;;;;;16.83;8.55;;;;;;;;;;4999445;28;20054;-80
2022/04/01 04:00:40;;;;;;;16.67;9.10;;;;;;;;;;4984832;28;20026;-80
2022/04/01 04:03:08;;;;;;;15.73;8.52;;;;;;;;;;4988846;28;20153;-78
2022/04/01 04:05:36;;;;;;;17.83;9.30;;;;;;;;;;4989361;28;20509;-80
2022/04/01 04:08:03;;;;;;;20.17;9.13;;;;;;;;;;4979010;28;20034;-82
2022/04/01 04:10:32;;;;;;;17.63;8.88;;;;;;;;;;4980778;28;20106;-81
2022/04/01 04:12:59;;;;;;;18.02;9.50;;;;;;;;;;4981930;28;20022;-81
2022/04/01 04:15:51;;;;;;;15.15;8.00;;;;;;;;;;4994642;28;20034;-80
2022/04/01 04:18:19;;;;;;;16.40;8.23;;;;;;;;;;5001132;28;20038;-79
2022/04/01 04:20:59;;;;;;;16.08;8.07;;;;;;;;;;4990868;28;20058;-80
2022/04/01 04:23:33;;;;;;;17.65;8.93;;;;;;;;;;4988903;28;20114;-80
2022/04/01 04:26:04;;;;;;;20.52;9.63;;;;;;;;;;4989352;28;20084;-81
2022/04/01 04:28:34;;;;;;;23.17;10.20;;;;;;;;;;4986622;28;20176;-79
2022/04/01 04:31:02;;;;;;;;;;;;;;;;;;4984430;28;20106;-80
2022/04/01 04:33:33;;;;;;;18.60;9.00;;;;;;;;;;4987664;28;20169;-83
2022/04/01 04:36:04;;;;;;;16.77;8.93;;;;;;;;;;4992571;28;20485;-81
2022/04/01 04:38:43;;;;;;;18.60;9.55;;;;;;;;;;5001730;28;20033;-83
2022/04/01 04:41:08;;;;;;;15.60;8.32;;;;;;;;;;4991028;28;20034;-80
2022/04/01 04:43:46;;;;;;;16.70;8.43;;;;;;;;;;4993202;28;20036;-82
2022/04/01 04:46:13;;;;;;;16.23;8.93;;;;;;;;;;4992001;28;20126;-82
2022/04/01 04:48:41;;;;;;;15.77;8.15;;;;;;;;;;4984033;28;20053;-79
2022/04/01 04:51:08;;;;;;;14.90;8.00;;;;;;;;;;4982116;28;20037;-80
2022/04/01 04:53:36;;;;;;;12.73;7.25;;;;;;;;;;5004330;28;20029;-77
2022/04/01 04:56:05;;;;;;;13.70;7.55;;;;;;;;;;4989532;28;20583;-76
2022/04/01 04:58:40;;;;;;;15.55;8.10;;;;;;;;;;4982546;28;20022;-77
2022/04/01 05:01:14;;;;;;;13.23;7.75;;;;;;;;;;4988970;28;20065;-78
2022/04/01 05:04:13;;;;;;;14.32;7.72;;;;;;;;;;4981027;28;20045;-78
2022/04/01 05:06:48;;;;;;;14.00;7.63;;;;;;;;;;4997541;28;20038;-76
2022/04/01 05:09:31;;;;;;;15.10;7.68;;;;;;;;;;4988913;28;20031;-77
2022/04/01 05:12:11;;;;;;;12.68;6.75;;;;;;;;;;4999943;28;20370;-76
2022/04/01 05:15:04;;;;;;;13.73;7.40;;;;;;;;;;4987870;28;20030;-77
2022/04/01 05:18:08;;;;;;;14.77;7.72;;;;;;;;;;4983268;28;20030;-78
2022/04/01 05:20:36;;;;;;;12.25;7.22;;;;;;;;;;4971670;28;20489;-78
2022/04/01 05:23:13;;;;;;;11.98;6.82;;;;;;;;;;4988546;28;20042;-77
2022/04/01 05:25:49;;;;;;;11.77;6.70;;;;;;;;;;4979153;28;20034;-77
2022/04/01 05:28:22;;;;;;;11.77;6.88;;;;;;;;;;4989687;28;20026;-77
2022/04/01 05:31:21;;;;;;;11.18;6.20;;;;;;;;;;4983974;28;20055;-77
2022/04/01 05:34:00;;;;;;;9.43;5.78;;;;;;;;;;4959813;28;20354;-78
2022/04/01 05:36:29;;;;;;;10.77;5.88;;;;;;;;;;4990096;28;20105;-76
2022/04/01 05:38:56;;;;;;;9.93;5.55;;;;;;;;;;4982928;28;20100;-77
2022/04/01 05:41:25;;;;;;;9.30;5.40;;;;;;;;;;4989593;28;20115;-77
2022/04/01 05:43:50;;;;;;;9.33;5.97;;;;;;;;;;4989511;28;20025;-78
2022/04/01 05:46:19;;;;;;;8.93;5.68;;;;;;;;;;4992220;28;20347;-76
2022/04/01 05:48:48;;;;;;;9.25;5.68;;;;;;;;;;4983055;28;20500;-78
2022/04/01 05:51:14;;;;;;;8.70;5.72;;;;;;;;;;4981876;28;20083;-78
2022/04/01 05:53:45;;;;;;;9.38;5.30;;;;;;;;;;4982792;28;20030;-76
2022/04/01 05:56:17;;;;;;;8.10;4.90;;;;;;;;;;4983376;28;20489;-78
2022/04/01 05:58:45;;;;;;;8.00;4.78;;;;;;;;;;4984588;28;20050;-79
2022/04/01 06:01:40;;;;;;;8.43;5.63;;;;;;;;;;4983354;28;20134;-76
2022/04/01 06:04:24;;;;;;;8.30;5.13;;;;;;;;;;4982080;28;20062;-78
2022/04/01 06:06:57;;;;;;;7.47;4.95;;;;;;;;;;4976372;28;20050;-79
2022/04/01 06:09:35;;;;;;;9.77;5.63;;;;;;;;;;5001324;28;20033;-77
2022/04/01 06:12:02;;;;;;;8.75;5.43;;;;;;;;;;4985194;28;20088;-76
2022/04/01 06:15:11;;;;;;;10.15;5.40;;;;;;;;;;4981978;28;20023;-76
2022/04/01 06:17:54;;;;;;;10.13;5.68;;;;;;;;;;4987270;28;20030;-76
2022/04/01 06:20:24;;;;;;;9.38;5.72;;;;;;;;;;4986630;28;20039;-76
2022/04/01 06:23:01;;;;;;;9.57;5.88;;;;;;;;;;4989864;28;20117;-76
2022/04/01 06:25:30;;;;;;;8.95;5.63;;;;;;;;;;4978652;28;20156;-75
2022/04/01 06:28:21;;;;;;;10.05;5.95;;;;;;;;;;4986803;28;20477;-76
2022/04/01 06:30:47;;;;;;;8.52;6.07;;;;;;;;;;4980004;28;20584;-77
2022/04/01 06:33:13;;;;;;;9.77;6.78;;;;;;;;;;4989215;28;20039;-76
2022/04/01 06:35:59;;;;;;;10.68;6.57;;;;;;;;;;4987920;28;20041;-76
2022/04/01 06:38:41;;;;;;;9.95;6.45;;;;;;;;;;4987879;28;20022;-77
2022/04/01 06:41:17;;;;;;;13.60;5.72;;;;;;;;;;4990755;28;20414;-77
2022/04/01 06:43:43;;;;;;;10.00;6.30;;;;;;;;;;4986072;28;20042;-75
2022/04/01 06:46:10;;;;;;;9.38;6.25;;;;;;;;;;4988327;28;20509;-75
2022/04/01 06:48:36;;;;;;;9.27;6.45;;;;;;;;;;4989024;28;20045;-77
2022/04/01 06:51:01;;;;;;;8.05;5.60;;;;;;;;;;4995495;28;20026;-75
2022/04/01 06:53:27;;;;;;;9.63;5.85;;;;;;;;;;4994020;28;20029;-75
2022/04/01 06:55:56;;;;;;;9.35;6.28;;;;;;;;;;4990630;28;20030;-75
2022/04/01 06:58:26;;;;;;;10.77;6.63;;;;;;;;;;4995140;28;20124;-76
2022/04/01 07:00:51;;;;;;;7.97;5.25;;;;;;;;;;4988389;28;20025;-77
2022/04/01 07:03:17;;;;;;;8.52;5.65;;;;;;;;;;4998615;28;20461;-78
2022/04/01 07:05:43;;;;;;;6.93;5.18;;;;;;;;;;4995547;28;20389;-77
2022/04/01 07:08:11;;;;;;;7.32;5.38;;;;;;;;;;4987856;28;20034;-76
2022/04/01 07:10:39;;;;;;;7.82;5.50;;;;;;;;;;4994065;28;20041;-77
2022/04/01 07:13:04;;;;;;;6.18;4.90;;;;;;;;;;4995369;28;20436;-78
2022/04/01 07:15:30;;;;;;;8.02;5.50;;;;;;;;;;4991887;28;20121;-77
2022/04/01 07:17:59;;;;;;;9.35;6.20;;;;;;;;;;4992734;28;20030;-77
2022/04/01 07:20:29;;;;;;;8.57;5.70;;;;;;;;;;4993504;28;20015;-78
2022/04/01 07:22:55;;;;;;;8.23;5.80;;;;;;;;;;4992284;28;20098;-77
2022/04/01 07:25:22;;;;;;;9.00;5.35;;;;;;;;;;4993658;28;20034;-77
2022/04/01 07:27:50;;;;;;;11.07;5.47;;;;;;;;;;4989556;28;20026;-77
2022/04/01 07:30:16;;;;;;;12.27;5.35;;;;;;;;;;4985388;28;20026;-77
2022/04/01 07:32:45;;;;;;;8.98;5.38;;;;;;;;;;4988748;28;20037;-77
2022/04/01 07:35:13;;;;;;;9.55;5.90;;;;;;;;;;4984604;28;20049;-77
2022/04/01 07:37:39;;;;;;;9.20;4.93;;;;;;;;;;4993448;28;20408;-77
2022/04/01 07:40:09;;;;;;;13.05;6.68;;;;;;;;;;4987811;28;20102;-77
2022/04/01 07:42:39;;;;;;;11.60;6.03;;;;;;;;;;4987971;28;20038;-77
2022/04/01 07:45:05;;;;;;;12.73;6.20;;;;;;;;;;4988903;28;20041;-76
2022/04/01 07:47:34;;;;;;;10.18;5.78;;;;;;;;;;4991837;28;20077;-77
2022/04/01 07:50:03;;;;;;;11.57;6.10;;;;;;;;;;4992339;28;20026;-76
2022/04/01 07:52:32;;;;;;;10.95;6.05;;;;;;;;;;4985359;28;20022;-77
2022/04/01 07:54:57;;;;;;;10.20;5.57;;;;;;;;;;4989290;28;20023;-77
2022/04/01 07:57:23;;;;;;;9.68;5.45;;;;;;;;;;4987487;28;20033;-77
2022/04/01 07:59:48;;;;;;;11.00;5.75;;;;;;;;;;4985188;28;20045;-76
2022/04/01 08:02:15;;;;;;;10.50;5.82;;;;;;;;;;4992779;28;20156;-76
2022/04/01 08:04:41;;;;;;;10.63;5.72;;;;;;;;;;4985038;28;20073;-77
2022/04/01 08:07:07;;;;;;;11.10;6.32;;;;;;;;;;4992046;28;20101;-75
2022/04/01 08:09:33;;;;;;;11.90;6.80;;;;;;;;;;4989907;28;20310;-76
2022/04/01 08:12:01;;;;;;;13.18;7.07;;;;;;;;;;4987258;28;20396;-77
2022/04/01 08:14:27;;;;;;;16.98;8.95;;;;;;;;;;5005246;28;20481;-76
2022/04/01 08:16:53;;;;;;;16.40;7.45;;;;;;;;;;4979203;28;20030;-76
2022/04/01 08:19:19;;;;;;;11.30;7.18;;;;;;;;;;4990143;28;20421;-76
2022/04/01 08:21:48;;;;;;;14.35;6.75;;;;;;;;;;4990578;28;20027;-76
2022/04/01 08:24:14;;;;;;;;;;;;;;;;;;4987291;28;20137;-77
2022/04/01 08:26:41;;;;;;;14.18;7.85;;;;;;;;;;4980218;28;20004;-76
2022/04/01 08:29:07;;;;;;;11.15;7.03;;;;;;;;;;4993910;28;20444;-77
2022/04/01 08:31:33;;;;;;;12.45;6.70;;;;;;;;;;4983949;28;20030;-77
2022/04/01 08:33:59;;;;;;;14.27;7.85;;;;;;;;;;4984797;28;20033;-77
2022/04/01 08:36:26;;;;;;;13.25;7.13;;;;;;;;;;4986078;28;20023;-78
2022/04/01 08:38:51;;;;;;;15.75;7.95;;;;;;;;;;4988180;28;20029;-77
2022/04/01 08:41:22;;;;;;;18.10;9.27;;;;;;;;;;4992677;28;20097;-78
2022/04/01 08:43:49;;;;;;;16.38;8.10;;;;;;;;;;4987661;28;20023;-77
2022/04/01 08:46:16;;;;;;;13.93;7.38;;;;;;;;;;4986464;28;20049;-78
2022/04/01 08:48:43;;;;;;;11.80;7.18;;;;;;;;;;4989117;28;20445;-78
2022/04/01 08:51:09;;;;;;;13.98;8.02;;;;;;;;;;4988620;28;20493;-78
2022/04/01 08:53:44;;;;;;;15.20;7.63;;;;;;;;;;4987703;28;20196;-78
2022/04/01 08:56:12;;;;;;;12.85;7.78;;;;;;;;;;4986498;28;20038;-76
2022/04/01 08:58:37;;;;;;;14.48;8.48;;;;;;;;;;4986536;28;20121;-77
2022/04/01 09:01:05;;;;;;;15.15;8.68;;;;;;;;;;4991557;28;20051;-77
2022/04/01 09:03:32;;;;;;;16.33;8.52;;;;;;;;;;4986047;28;20128;-77
2022/04/01 09:06:03;;;;;;;15.50;8.63;;;;;;;;;;4982774;28;20026;-77
2022/04/01 09:08:35;;;;;;;17.77;8.80;;;;;;;;;;4983220;28;20030;-77
2022/04/01 09:11:17;;;;;;;14.95;8.82;;;;;;;;;;4986854;28;20028;-78
2022/04/01 09:13:45;;;;;;;17.98;8.88;;;;;;;;;;4988192;28;20030;-78
2022/04/01 09:16:33;;;;;;;18.27;8.95;;;;;;;;;;4989894;28;20132;-77
2022/04/01 09:19:04;;;;;;;16.42;8.38;;;;;;;;;;5002309;28;20108;-78
2022/04/01 09:21:32;;;;;;;17.33;9.00;;;;;;;;;;4996059;28;20022;-78
2022/04/01 09:23:58;;;;;;;18.02;9.10;;;;;;;;;;4996238;28;20057;-79
2022/04/01 09:26:35;;;;;;;20.20;9.60;;;;;;;;;;4999081;28;20034;-78
2022/04/01 09:29:02;;;;;;;20.63;9.48;;;;;;;;;;4994362;28;20070;-78
2022/04/01 09:31:36;;;;;;;17.02;8.95;;;;;;;;;;4991888;28;20274;-78
2022/04/01 09:34:06;;;;;;;17.35;9.65;;;;;;;;;;4998241;28;20033;-78
2022/04/01 09:36:33;;;;;;;16.50;9.50;;;;;;;;;;4992362;28;20141;-80
2022/04/01 09:39:04;;;;;;;16.38;9.02;;;;;;;;;;4986265;28;20049;-78
2022/04/01 09:41:31;;;;;;;15.40;8.75;;;;;;;;;;4983914;28;20030;-78
2022/04/01 09:44:06;;;;;;;15.00;9.00;;;;;;;;;;4988001;28;20050;-78
2022/04/01 09:46:38;;;;;;;12.75;7.78;;;;;;;;;;4984730;28;20026;-78
2022/04/01 09:49:06;;;;;;;15.63;9.63;;;;;;;;;;4983139;28;20115;-78
2022/04/01 09:51:33;;;;;;;15.60;8.85;;;;;;;;;;4987195;28;20085;-78
2022/04/01 09:54:04;;;;;;;14.80;8.25;;;;;;;;;;4985749;28;20029;-77
2022/04/01 09:56:45;;;;;;;16.15;8.63;;;;;;;;;;4981973;28;20036;-78
2022/04/01 09:59:16;;;;;;;14.90;8.05;;;;;;;;;;4987807;28;20081;-78
2022/04/01 10:01:43;;;;;;;15.55;8.27;;;;;;;;;;4986895;28;20574;-78
2022/04/01 10:04:13;;;;;;;14.30;8.55;;;;;;;;;;4985465;28;20413;-77
2022/04/01 10:06:39;;;;;;;15.57;9.02;;;;;;;;;;4981927;28;20512;-77
2022/04/01 10:09:12;;;;;;;16.15;8.98;;;;;;;;;;4982065;28;20032;-79
2022/04/01 10:11:43;;;;;;;14.93;8.85;;;;;;;;;;4989409;28;20481;-78
2022/04/01 10:14:11;;;;;;;13.55;8.20;;;;;;;;;;4988698;28;20042;-77
2022/04/01 10:16:41;;;;;;;11.98;7.10;;;;;;;;;;4999479;28;20371;-79
2022/04/01 10:19:14;;;;;;;14.38;8.05;;;;;;;;;;4995353;28;20033;-78
2022/04/01 10:21:44;;;;;;;15.00;8.73;;;;;;;;;;4998770;28;20022;-76
2022/04/01 10:24:27;;;;;;;14.40;8.15;;;;;;;;;;5005610;28;20026;-77
2022/04/01 10:27:13;;;;;;;13.27;7.28;;;;;;;;;;4993699;28;20137;-77
2022/04/01 10:29:39;;;;;;;14.00;7.68;;;;;;;;;;4991640;28;20041;-77
2022/04/01 10:32:37;;;;;;;11.75;7.28;;;;;;;;;;4991481;28;20037;-79
2022/04/01 10:35:08;;;;;;;11.07;6.38;;;;;;;;;;4987587;28;20034;-77
2022/04/01 10:37:35;;;;;;;13.77;7.75;;;;;;;;;;4985991;28;20037;-78
2022/04/01 10:40:17;;;;;;;13.98;8.15;;;;;;;;;;4990396;28;20114;-79
2022/04/01 10:42:45;;;;;;;12.05;7.03;;;;;;;;;;4996963;28;20058;-79
2022/04/01 10:45:17;;;;;;;12.80;7.55;;;;;;;;;;4995846;28;20042;-76
2022/04/01 10:53:38;;;;;;;11.88;7.28;;;;;;;;;;4985149;28;20108;-78
2022/04/01 10:56:25;;;;;;;11.02;6.78;;;;;;;;;;4988530;28;20053;-77
2022/04/01 10:59:09;;;;;;;12.00;7.20;;;;;;;;;;4987854;28;20034;-79
2022/04/01 11:01:38;;;;;;;10.18;6.28;;;;;;;;;;4997849;28;20034;-79
2022/04/01 11:04:07;;;;;;;12.07;6.53;;;;;;;;;;5001674;28;20030;-79
2022/04/01 11:06:32;;;;;;;12.73;6.60;;;;;;;;;;4997992;28;20037;-79
2022/04/01 11:08:58;;;;;;;10.10;5.65;;;;;;;;;;4997009;28;20030;-78
2022/04/01 11:11:26;;;;;;;9.68;5.88;;;;;;;;;;4995247;28;20030;-79
2022/04/01 11:14:03;;;;;;;9.85;5.97;;;;;;;;;;4991695;28;20042;-78
2022/04/01 11:16:50;;;;;;;11.32;6.32;;;;;;;;;;4996569;28;20030;-79
2022/04/01 11:19:22;;;;;;;7.88;5.18;;;;;;;;;;5010225;28;20033;-78
2022/04/01 11:21:48;;;;;;;7.05;5.00;;;;;;;;;;4994316;28;20030;-79
2022/04/01 11:24:41;;;;;;;9.23;5.47;;;;;;;;;;4991068;28;20045;-78
2022/04/01 11:27:30;;;;;;;9.30;5.78;;;;;;;;;;4984717;28;20330;-78
2022/04/01 11:30:15;;;;;;;10.88;6.45;;;;;;;;;;4989753;28;20034;-79
2022/04/01 11:32:47;;;;;;;11.68;6.50;;;;;;;;;;4989367;28;20058;-77
2022/04/01 11:35:17;;;;;;;8.15;5.43;;;;;;;;;;4988525;28;20382;-77
2022/04/01 11:37:44;;;;;;;7.43;5.10;;;;;;;;;;4991047;28;20057;-78
2022/04/01 11:40:13;;;;;;;7.05;5.22;;;;;;;;;;4987676;28;20069;-77
2022/04/01 11:43:02;;;;;;;7.68;5.30;;;;;;;;;;4988844;28;20037;-79
2022/04/01 11:45:29;;;;;;;8.68;5.03;;;;;;;;;;4986613;28;20033;-78
2022/04/01 11:47:55;;;;;;;9.10;5.55;;;;;;;;;;4986333;28;20041;-78
2022/04/01 11:50:22;;;;;;;9.02;5.65;;;;;;;;;;4988033;28;20019;-78
2022/04/01 11:52:50;;;;;;;7.65;5.20;;;;;;;;;;4992368;28;20026;-77
2022/04/01 11:55:22;;;;;;;7.88;5.50;;;;;;;;;;4994210;28;20393;-78
2022/04/01 11:57:49;;;;;;;10.93;4.88;;;;;;;;;;5001361;28;20168;-79
2022/04/01 12:00:20;;;;;;;8.18;5.10;;;;;;;;;;4983943;28;20133;-77
2022/04/01 12:02:51;;;;;;;7.63;5.05;;;;;;;;;;4982675;28;20038;-76
2022/04/01 12:05:17;;;;;;;9.55;6.15;;;;;;;;;;4984111;28;20084;-77
2022/04/01 12:10:36;;;;;;;13.18;8.68;;;;;;;;;;4983583;28;20460;-78
2022/04/01 12:13:06;;;;;;;15.35;7.95;;;;;;;;;;5003853;28;20022;-77
2022/04/01 12:15:34;;;;;;;17.35;8.70;;;;;;;;;;4992365;28;20033;-79
2022/04/01 12:18:01;;;;;;;12.38;6.88;;;;;;;;;;5002373;28;20037;-77
2022/04/01 12:20:28;;;;;;;10.07;6.93;;;;;;;;;;4991211;28;20022;-78
2022/04/01 12:22:59;;;;;;;8.27;5.47;;;;;;;;;;4987524;28;20400;-78
2022/04/01 12:25:27;;;;;;;9.07;6.68;;;;;;;;;;4990284;28;20023;-78
2022/04/01 12:27:53;;;;;;;11.32;7.95;;;;;;;;;;4986605;28;20034;-77
2022/04/01 12:30:34;;;;;;;17.63;9.02;;;;;;;;;;4989788;28;20030;-79
2022/04/01 12:33:02;;;;;;;10.18;6.35;;;;;;;;;;4986405;28;20084;-77
2022/04/01 12:35:27;;;;;;;12.10;8.40;;;;;;;;;;4983899;28;20110;-78
2022/04/01 12:38:10;;;;;;;12.50;7.57;;;;;;;;;;4982479;28;20062;-75
2022/04/01 12:40:44;;;;;;;7.57;4.57;;;;;;;;;;4986575;28;20438;-79
2022/04/01 12:43:31;;;;;;;14.68;8.52;;;;;;;;;;4985076;28;20027;-78
2022/04/01 12:46:29;;;;;;;13.80;7.95;;;;;;;;;;4989342;28;20101;-78
2022/04/01 12:49:12;;;;;;;8.63;6.15;;;;;;;;;;4989105;28;20042;-79
2022/04/01 12:51:40;;;;;;;9.13;5.45;;;;;;;;;;4988975;28;20105;-77
2022/04/01 12:54:13;;;;;;;6.80;5.05;;;;;;;;;;4993080;28;20041;-77
2022/04/01 12:56:42;;;;;;;10.45;6.40;;;;;;;;;;4990426;28;20030;-78
2022/04/01 12:59:10;;;;;;;9.57;6.07;;;;;;;;;;5001427;28;20116;-77
2022/04/01 13:01:55;;;;;;;12.70;7.22;;;;;;;;;;4987756;28;20042;-82
2022/04/01 13:04:22;;;;;;;8.13;5.45;;;;;;;;;;4981871;28;20018;-77
2022/04/01 13:07:05;;;;;;;12.40;5.82;;;;;;;;;;4988358;28;20034;-77
2022/04/01 13:09:31;;;;;;;14.38;7.53;;;;;;;;;;4987414;28;20026;-79
2022/04/01 13:11:58;;;;;;;10.85;6.35;;;;;;;;;;4987655;28;20054;-79
2022/04/01 13:14:27;;;;;;;12.80;6.80;;;;;;;;;;4986712;28;20434;-78
2022/04/01 13:16:54;;;;;;;9.80;5.53;;;;;;;;;;4992276;28;20030;-77
2022/04/01 13:19:23;;;;;;;11.18;5.43;;;;;;;;;;4990407;28;20032;-75
2022/04/01 13:21:53;;;;;;;8.18;5.07;;;;;;;;;;4995076;28;20504;-77
2022/04/01 13:24:22;;;;;;;;;;;;;;;;;;4983503;28;20567;-76
2022/04/01 13:26:48;;;;;;;14.38;8.48;;;;;;;;;;4989183;28;19913;-77
2022/04/01 13:29:16;;;;;;;14.20;7.60;;;;;;;;;;4993611;28;20035;-77
2022/04/01 13:31:47;;;;;;;12.98;6.50;;;;;;;;;;4987030;28;20072;-76
2022/04/01 13:34:13;;;;;;;12.50;6.45;;;;;;;;;;4985107;28;20033;-76
2022/04/01 13:36:38;;;;;;;9.57;5.32;;;;;;;;;;4984139;28;20026;-76
2022/04/01 13:39:05;;;;;;;10.20;5.53;;;;;;;;;;4986489;28;20430;-77
2022/04/01 13:41:31;;;;;;;11.82;6.40;;;;;;;;;;4986096;28;20643;-76
2022/04/01 13:44:00;;;;;;;12.15;7.18;;;;;;;;;;4996848;28;20038;-77
2022/04/01 13:46:26;;;;;;;13.15;7.35;;;;;;;;;;4990889;28;20053;-76
2022/04/01 13:48:53;;;;;;;13.68;7.80;;;;;;;;;;4991005;28;20125;-76
2022/04/01 13:51:19;;;;;;;18.73;9.88;;;;;;;;;;4983501;28;20062;-77
2022/04/01 13:53:44;;;;;;;15.52;8.50;;;;;;;;;;5009989;28;20014;-75
2022/04/01 13:56:13;;;;;;;12.88;8.05;;;;;;;;;;5011052;28;20057;-76
2022/04/01 13:58:38;;;;;;;11.82;7.03;;;;;;;;;;4999130;28;20027;-77
2022/04/01 14:01:04;;;;;;;10.73;6.88;;;;;;;;;;4984797;28;20097;-75
2022/04/01 14:03:29;;;;;;;10.65;7.32;;;;;;;;;;4992914;28;20133;-77
2022/04/01 14:05:55;;;;;;;10.52;6.88;;;;;;;;;;4989285;28;20567;-78
2022/04/01 14:08:20;;;;;;;17.33;8.93;;;;;;;;;;4988927;28;20023;-77
2022/04/01 14:10:47;;;;;;;12.27;8.02;;;;;;;;;;4989771;28;20030;-78
2022/04/01 14:13:12;;;;;;;13.85;8.25;;;;;;;;;;4990486;28;20085;-78
2022/04/01 14:15:38;;;;;;;15.63;8.38;;;;;;;;;;4992681;28;20038;-77
2022/04/01 14:18:04;;;;;;;13.02;8.00;;;;;;;;;;4992785;28;20066;-77
2022/04/01 14:20:29;;;;;;;14.60;8.77;;;;;;;;;;4994814;28;20559;-77
2022/04/01 14:22:55;;;;;;;11.98;7.47;;;;;;;;;;4983844;28;20493;-77
2022/04/01 14:25:21;;;;;;;11.85;8.02;;;;;;;;;;4994867;28;20057;-78
2022/04/01 14:27:49;;;;;;;14.52;8.30;;;;;;;;;;4986746;28;20027;-77
2022/04/01 14:30:21;;;;;;;13.35;8.23;;;;;;;;;;4988854;28;20041;-76
2022/04/01 14:32:52;;;;;;;13.98;8.20;;;;;;;;;;4995883;28;20209;-77
2022/04/01 14:35:19;;;;;;;13.85;8.10;;;;;;;;;;4979089;28;20114;-77
2022/04/01 14:37:48;;;;;;;11.98;8.00;;;;;;;;;;4986060;28;20033;-78
2022/04/01 14:40:19;;;;;;;13.68;9.10;;;;;;;;;;4985095;28;20026;-76
2022/04/01 14:42:44;;;;;;;14.18;6.97;;;;;;;;;;4990126;28;20554;-77
2022/04/01 14:45:11;;;;;;;14.57;7.35;;;;;;;;;;4985114;28;20035;-77
2022/04/01 14:47:39;;;;;;;10.65;7.28;;;;;;;;;;4983756;28;20037;-78
2022/04/01 14:50:05;;;;;;;12.90;8.32;;;;;;;;;;4986574;28;20049;-77
2022/04/01 14:52:31;;;;;;;15.23;8.07;;;;;;;;;;4983700;28;20022;-76
2022/04/01 14:54:56;;;;;;;16.45;8.65;;;;;;;;;;4991382;28;20045;-77
2022/04/01 14:57:22;;;;;;;12.82;8.00;;;;;;;;;;4990496;28;20034;-78
2022/04/01 14:59:48;;;;;;;12.93;7.70;;;;;;;;;;4989623;28;20486;-77
2022/04/01 15:02:15;;;;;;;14.75;8.70;;;;;;;;;;4991295;28;20037;-77